sensor_id;sensor_type;location;lat;lon;timestamp;pressure;altitude;pressure_sealevel;temperature;humidity
45253;BME280;63171;50.520;30.486;2024-01-11T00:00:22;100217.91;;;-2.31;100.00
45253;BME280;63171;50.520;30.486;2024-01-11T00:01:12;100211.94;;;-2.43;100.00
45253;BME280;63171;50.520;30.486;2024-01-11T00:02:03;100199.97;;;-2.36;100.00
45253;BME280;63171;50.520;30.486;2024-01-11T00:02:53;100209.38;;;-2.35;100.00
45253;BME280;63171;50.520;30.486;2024-01-11T00:03:43;100209.38;;;-2.35;100.00
45253;BME280;63171;50.520;30.486;2024-01-11T00:04:34;100204.25;;;-2.40;100.00
45253;BME280;63171;50.520;30.486;2024-01-11T00:05:24;100210.22;;;-2.34;100.00
45253;BME280;63171;50.520;30.486;2024-01-11T00:06:13;100199.94;;;-2.31;100.00
45253;BME280;63171;50.520;30.486;2024-01-11T00:07:04;100205.91;;;-2.31;100.00
45253;BME280;63171;50.520;30.486;2024-01-11T00:07:54;100202.47;;;-2.28;100.00
45253;BME280;63171;50.520;30.486;2024-01-11T00:08:45;100200.81;;;-2.32;100.00
45253;BME280;63171;50.520;30.486;2024-01-11T00:09:38;100210.19;;;-2.30;100.00
45253;BME280;63171;50.520;30.486;2024-01-11T00:10:29;100196.50;;;-2.26;100.00
45253;BME280;63171;50.520;30.486;2024-01-11T00:11:19;100193.09;;;-2.29;100.00
45253;BME280;63171;50.520;30.486;2024-01-11T00:12:10;100194.81;;;-2.33;100.00
45253;BME280;63171;50.520;30.486;2024-01-11T00:13:00;100193.09;;;-2.31;100.00
45253;BME280;63171;50.520;30.486;2024-01-11T00:13:49;100195.66;;;-2.31;100.00
45253;BME280;63171;50.520;30.486;2024-01-11T00:14:40;100200.81;;;-2.32;100.00
45253;BME280;63171;50.520;30.486;2024-01-11T00:15:31;100191.38;;;-2.24;100.00
45253;BME280;63171;50.520;30.486;2024-01-11T00:16:21;100195.69;;;-2.42;100.00
45253;BME280;63171;50.520;30.486;2024-01-11T00:17:12;100185.44;;;-2.39;100.00
45253;BME280;63171;50.520;30.486;2024-01-11T00:18:02;100187.16;;;-2.39;100.00
45253;BME280;63171;50.520;30.486;2024-01-11T00:18:53;100193.16;;;-2.43;100.00
45253;BME280;63171;50.520;30.486;2024-01-11T00:19:43;100189.75;;;-2.48;100.00
45253;BME280;63171;50.520;30.486;2024-01-11T00:20:33;100198.31;;;-2.48;100.00
45253;BME280;63171;50.520;30.486;2024-01-11T00:21:24;100199.19;;;-2.53;100.00
45253;BME280;63171;50.520;30.486;2024-01-11T00:22:14;100194.91;;;-2.51;100.00
45253;BME280;63171;50.520;30.486;2024-01-11T00:23:04;100191.53;;;-2.61;100.00
45253;BME280;63171;50.520;30.486;2024-01-11T00:23:55;100188.94;;;-2.59;100.00
45253;BME280;63171;50.520;30.486;2024-01-11T00:24:45;100190.63;;;-2.54;100.00
45253;BME280;63171;50.520;30.486;2024-01-11T00:25:34;100187.19;;;-2.54;100.00
45253;BME280;63171;50.520;30.486;2024-01-11T00:26:25;100186.38;;;-2.53;100.00
45253;BME280;63171;50.520;30.486;2024-01-11T00:27:15;100192.34;;;-2.50;100.00
45253;BME280;63171;50.520;30.486;2024-01-11T00:28:05;100176.94;;;-2.48;100.00
45253;BME280;63171;50.520;30.486;2024-01-11T00:28:55;100175.22;;;-2.49;100.00
45253;BME280;63171;50.520;30.486;2024-01-11T00:29:45;100179.50;;;-2.50;100.00
45253;BME280;63171;50.520;30.486;2024-01-11T00:30:36;100176.09;;;-2.56;100.00
45253;BME280;63171;50.520;30.486;2024-01-11T00:31:27;100178.66;;;-2.55;100.00
45253;BME280;63171;50.520;30.486;2024-01-11T00:32:17;100175.25;;;-2.55;100.00
45253;BME280;63171;50.520;30.486;2024-01-11T00:33:06;100179.59;;;-2.65;100.00
45253;BME280;63171;50.520;30.486;2024-01-11T00:33:58;100174.44;;;-2.63;100.00
45253;BME280;63171;50.520;30.486;2024-01-11T00:34:48;100178.75;;;-2.73;100.00
45253;BME280;63171;50.520;30.486;2024-01-11T00:35:37;100178.75;;;-2.75;100.00
45253;BME280;63171;50.520;30.486;2024-01-11T00:36:28;100186.44;;;-2.67;100.00
45253;BME280;63171;50.520;30.486;2024-01-11T00:37:19;100182.97;;;-2.61;100.00
45253;BME280;63171;50.520;30.486;2024-01-11T00:38:09;100185.56;;;-2.64;100.00
45253;BME280;63171;50.520;30.486;2024-01-11T00:39:00;100171.88;;;-2.70;100.00
45253;BME280;63171;50.520;30.486;2024-01-11T00:39:50;100183.00;;;-2.72;100.00
45253;BME280;63171;50.520;30.486;2024-01-11T00:40:40;100173.63;;;-2.76;100.00
45253;BME280;63171;50.520;30.486;2024-01-11T00:41:31;100170.19;;;-2.74;100.00
45253;BME280;63171;50.520;30.486;2024-01-11T00:42:20;100166.78;;;-2.76;100.00
45253;BME280;63171;50.520;30.486;2024-01-11T00:43:10;100168.50;;;-2.75;100.00
45253;BME280;63171;50.520;30.486;2024-01-11T00:44:01;100171.91;;;-2.71;100.00
45253;BME280;63171;50.520;30.486;2024-01-11T00:44:51;100154.81;;;-2.71;100.00
45253;BME280;63171;50.520;30.486;2024-01-11T00:45:43;100171.03;;;-2.72;100.00
45253;BME280;63171;50.520;30.486;2024-01-11T00:46:35;100173.59;;;-2.69;100.00
45253;BME280;63171;50.520;30.486;2024-01-11T00:47:26;100170.19;;;-2.64;100.00
45253;BME280;63171;50.520;30.486;2024-01-11T00:48:16;100155.66;;;-2.65;100.00
45253;BME280;63171;50.520;30.486;2024-01-11T00:49:06;100152.22;;;-2.68;100.00
45253;BME280;63171;50.520;30.486;2024-01-11T00:49:56;100160.81;;;-2.76;100.00
45253;BME280;63171;50.520;30.486;2024-01-11T00:50:46;100153.13;;;-2.75;100.00
45253;BME280;63171;50.520;30.486;2024-01-11T00:51:37;100145.44;;;-2.81;100.00
45253;BME280;63171;50.520;30.486;2024-01-11T00:52:27;100158.25;;;-2.78;100.00
45253;BME280;63171;50.520;30.486;2024-01-11T00:53:17;100151.38;;;-2.71;100.00
45253;BME280;63171;50.520;30.486;2024-01-11T00:54:07;100156.50;;;-2.66;100.00
45253;BME280;63171;50.520;30.486;2024-01-11T00:54:57;100153.94;;;-2.66;100.00
45253;BME280;63171;50.520;30.486;2024-01-11T00:55:48;100151.38;;;-2.66;100.00
45253;BME280;63171;50.520;30.486;2024-01-11T00:56:38;100152.19;;;-2.58;100.00
45253;BME280;63171;50.520;30.486;2024-01-11T00:57:28;100150.50;;;-2.59;100.00
45253;BME280;63171;50.520;30.486;2024-01-11T00:58:18;100156.53;;;-2.76;100.00
45253;BME280;63171;50.520;30.486;2024-01-11T00:59:08;100150.53;;;-2.73;100.00
45253;BME280;63171;50.520;30.486;2024-01-11T00:59:58;100146.25;;;-2.70;100.00
45253;BME280;63171;50.520;30.486;2024-01-11T01:02:37;100136.00;;;-2.65;100.00
45253;BME280;63171;50.520;30.486;2024-01-11T01:03:28;100130.00;;;-2.69;100.00
45253;BME280;63171;50.520;30.486;2024-01-11T01:04:18;100132.59;;;-2.67;100.00
45253;BME280;63171;50.520;30.486;2024-01-11T01:05:08;100133.41;;;-2.68;100.00
45253;BME280;63171;50.520;30.486;2024-01-11T01:05:59;100137.75;;;-2.75;100.00
45253;BME280;63171;50.520;30.486;2024-01-11T01:06:50;100126.59;;;-2.69;100.00
45253;BME280;63171;50.520;30.486;2024-01-11T01:07:40;100129.16;;;-2.68;100.00
45253;BME280;63171;50.520;30.486;2024-01-11T01:08:31;100130.00;;;-2.64;100.00
45253;BME280;63171;50.520;30.486;2024-01-11T01:09:21;100132.53;;;-2.56;100.00
45253;BME280;63171;50.520;30.486;2024-01-11T01:10:11;100129.09;;;-2.55;100.00
45253;BME280;63171;50.520;30.486;2024-01-11T01:11:01;100132.56;;;-2.61;100.00
45253;BME280;63171;50.520;30.486;2024-01-11T01:11:52;100130.88;;;-2.70;100.00
45253;BME280;63171;50.520;30.486;2024-01-11T01:12:42;100128.31;;;-2.66;100.00
45253;BME280;63171;50.520;30.486;2024-01-11T01:13:33;100113.78;;;-2.71;100.00
45253;BME280;63171;50.520;30.486;2024-01-11T01:14:22;100120.63;;;-2.70;100.00
45253;BME280;63171;50.520;30.486;2024-01-11T01:15:12;100123.22;;;-2.74;100.00
45253;BME280;63171;50.520;30.486;2024-01-11T01:16:04;100126.59;;;-2.71;100.00
45253;BME280;63171;50.520;30.486;2024-01-11T01:16:53;100109.50;;;-2.69;100.00
45253;BME280;63171;50.520;30.486;2024-01-11T01:17:45;100116.38;;;-2.74;100.00
45253;BME280;63171;50.520;30.486;2024-01-11T01:18:35;100111.19;;;-2.68;100.00
45253;BME280;63171;50.520;30.486;2024-01-11T01:19:26;100112.91;;;-2.63;100.00
45253;BME280;63171;50.520;30.486;2024-01-11T01:20:15;100116.31;;;-2.60;100.00
45253;BME280;63171;50.520;30.486;2024-01-11T01:21:05;100106.91;;;-2.61;100.00
45253;BME280;63171;50.520;30.486;2024-01-11T01:21:57;100108.66;;;-2.69;100.00
45253;BME280;63171;50.520;30.486;2024-01-11T01:22:47;100112.06;;;-2.65;100.00
45253;BME280;63171;50.520;30.486;2024-01-11T01:23:36;100108.66;;;-2.69;100.00
45253;BME280;63171;50.520;30.486;2024-01-11T01:24:27;100108.66;;;-2.71;100.00
45253;BME280;63171;50.520;30.486;2024-01-11T01:25:17;100100.13;;;-2.66;100.00
45253;BME280;63171;50.520;30.486;2024-01-11T01:26:07;100105.22;;;-2.65;100.00
45253;BME280;63171;50.520;30.486;2024-01-11T01:26:57;100093.28;;;-2.64;100.00
45253;BME280;63171;50.520;30.486;2024-01-11T01:27:46;100094.97;;;-2.68;100.00
45253;BME280;63171;50.520;30.486;2024-01-11T01:28:37;100101.81;;;-2.70;100.00
45253;BME280;63171;50.520;30.486;2024-01-11T01:29:29;100098.38;;;-2.68;100.00
45253;BME280;63171;50.520;30.486;2024-01-11T01:30:19;100093.28;;;-2.69;100.00
45253;BME280;63171;50.520;30.486;2024-01-11T01:31:09;100094.97;;;-2.68;100.00
45253;BME280;63171;50.520;30.486;2024-01-11T01:31:59;100108.66;;;-2.69;100.00
45253;BME280;63171;50.520;30.486;2024-01-11T01:32:50;100105.22;;;-2.65;100.00
45253;BME280;63171;50.520;30.486;2024-01-11T01:33:40;100099.25;;;-2.64;100.00
45253;BME280;63171;50.520;30.486;2024-01-11T01:34:31;100100.97;;;-2.69;100.00
45253;BME280;63171;50.520;30.486;2024-01-11T01:35:21;100097.53;;;-2.63;100.00
45253;BME280;63171;50.520;30.486;2024-01-11T01:36:12;100088.97;;;-2.62;100.00
45253;BME280;63171;50.520;30.486;2024-01-11T01:37:01;100099.22;;;-2.61;100.00
45253;BME280;63171;50.520;30.486;2024-01-11T01:37:51;100093.22;;;-2.58;100.00
45253;BME280;63171;50.520;30.486;2024-01-11T01:38:42;100094.94;;;-2.59;100.00
45253;BME280;63171;50.520;30.486;2024-01-11T01:39:32;100089.81;;;-2.59;100.00
45253;BME280;63171;50.520;30.486;2024-01-11T01:40:21;100092.34;;;-2.57;100.00
45253;BME280;63171;50.520;30.486;2024-01-11T01:41:12;100100.06;;;-2.59;100.00
45253;BME280;63171;50.520;30.486;2024-01-11T01:42:02;100089.78;;;-2.57;100.00
45253;BME280;63171;50.520;30.486;2024-01-11T01:42:57;100088.06;;;-2.54;100.00
45253;BME280;63171;50.520;30.486;2024-01-11T01:43:48;100084.66;;;-2.57;100.00
45253;BME280;63171;50.520;30.486;2024-01-11T01:44:38;100084.75;;;-2.66;100.00
45253;BME280;63171;50.520;30.486;2024-01-11T01:45:30;100087.28;;;-2.68;100.00
45253;BME280;63171;50.520;30.486;2024-01-11T01:46:22;100079.63;;;-2.73;100.00
45253;BME280;63171;50.520;30.486;2024-01-11T01:47:13;100072.78;;;-2.74;100.00
45253;BME280;63171;50.520;30.486;2024-01-11T01:48:05;100062.56;;;-2.77;100.00
45253;BME280;63171;50.520;30.486;2024-01-11T01:48:57;100074.53;;;-2.79;100.00
45253;BME280;63171;50.520;30.486;2024-01-11T01:49:48;100076.22;;;-2.73;100.00
45253;BME280;63171;50.520;30.486;2024-01-11T01:50:39;100073.63;;;-2.69;100.00
45253;BME280;63171;50.520;30.486;2024-01-11T01:51:29;100065.94;;;-2.65;100.00
45253;BME280;63171;50.520;30.486;2024-01-11T01:52:21;100060.78;;;-2.62;100.00
45253;BME280;63171;50.520;30.486;2024-01-11T01:53:12;100059.97;;;-2.66;100.00
45253;BME280;63171;50.520;30.486;2024-01-11T01:54:02;100058.22;;;-2.62;100.00
45253;BME280;63171;50.520;30.486;2024-01-11T01:54:52;100049.59;;;-2.54;100.00
45253;BME280;63171;50.520;30.486;2024-01-11T01:55:43;100058.22;;;-2.64;100.00
45253;BME280;63171;50.520;30.486;2024-01-11T01:56:32;100037.66;;;-2.56;100.00
45253;BME280;63171;50.520;30.486;2024-01-11T01:57:22;100039.34;;;-2.52;100.00
45253;BME280;63171;50.520;30.486;2024-01-11T01:58:13;100043.66;;;-2.57;100.00
45253;BME280;63171;50.520;30.486;2024-01-11T01:59:04;100024.81;;;-2.55;100.00
45253;BME280;63171;50.520;30.486;2024-01-11T01:59:54;100038.50;;;-2.57;100.00
45253;BME280;63171;50.520;30.486;2024-01-11T02:00:45;100029.94;;;-2.50;100.00
45253;BME280;63171;50.520;30.486;2024-01-11T02:01:36;100026.56;;;-2.57;100.00
45253;BME280;63171;50.520;30.486;2024-01-11T02:02:27;100017.16;;;-2.58;100.00
45253;BME280;63171;50.520;30.486;2024-01-11T02:03:19;100020.53;;;-2.51;100.00
45253;BME280;63171;50.520;30.486;2024-01-11T02:04:10;100017.16;;;-2.53;100.00
45253;BME280;63171;50.520;30.486;2024-01-11T02:05:01;100016.31;;;-2.58;100.00
45253;BME280;63171;50.520;30.486;2024-01-11T02:05:51;100014.63;;;-2.61;100.00
45253;BME280;63171;50.520;30.486;2024-01-11T02:06:44;100006.91;;;-2.58;100.00
45253;BME280;63171;50.520;30.486;2024-01-11T02:07:36;100013.72;;;-2.51;100.00
45253;BME280;63171;50.520;30.486;2024-01-11T02:08:27;100011.09;;;-2.46;100.00
45253;BME280;63171;50.520;30.486;2024-01-11T02:09:17;100006.81;;;-2.44;100.00
45253;BME280;63171;50.520;30.486;2024-01-11T02:10:07;99997.47;;;-2.51;100.00
45253;BME280;63171;50.520;30.486;2024-01-11T02:10:59;100001.81;;;-2.61;100.00
45253;BME280;63171;50.520;30.486;2024-01-11T02:11:49;100002.66;;;-2.62;100.00
45253;BME280;63171;50.520;30.486;2024-01-11T02:12:39;100000.06;;;-2.57;100.00
45253;BME280;63171;50.520;30.486;2024-01-11T02:13:32;99995.88;;;-2.66;100.00
45253;BME280;63171;50.520;30.486;2024-01-11T02:14:22;99996.66;;;-2.59;100.00
45253;BME280;63171;50.520;30.486;2024-01-11T02:15:12;99994.06;;;-2.55;100.00
45253;BME280;63171;50.520;30.486;2024-01-11T02:16:02;99987.22;;;-2.51;100.00
45253;BME280;63171;50.520;30.486;2024-01-11T02:16:52;99991.50;;;-2.56;100.00
45253;BME280;63171;50.520;30.486;2024-01-11T02:17:43;99994.06;;;-2.55;100.00
45253;BME280;63171;50.520;30.486;2024-01-11T02:18:34;99989.78;;;-2.53;100.00
45253;BME280;63171;50.520;30.486;2024-01-11T02:19:24;99995.69;;;-2.45;100.00
45253;BME280;63171;50.520;30.486;2024-01-11T02:20:15;99994.88;;;-2.48;100.00
45253;BME280;63171;50.520;30.486;2024-01-11T02:21:06;99993.13;;;-2.43;100.00
45253;BME280;63171;50.520;30.486;2024-01-11T02:22:00;99989.69;;;-2.39;100.00
45253;BME280;63171;50.520;30.486;2024-01-11T02:22:56;99981.13;;;-2.41;100.00
45253;BME280;63171;50.520;30.486;2024-01-11T02:24:04;99971.72;;;-2.41;100.00
45253;BME280;63171;50.520;30.486;2024-01-11T02:24:55;99978.63;;;-2.46;100.00
45253;BME280;63171;50.520;30.486;2024-01-11T02:25:47;99976.03;;;-2.44;100.00
45253;BME280;63171;50.520;30.486;2024-01-11T02:26:37;99969.22;;;-2.47;100.00
45253;BME280;63171;50.520;30.486;2024-01-11T02:27:48;99965.78;;;-2.46;100.00
45253;BME280;63171;50.520;30.486;2024-01-11T02:28:38;99976.03;;;-2.44;100.00
45253;BME280;63171;50.520;30.486;2024-01-11T02:29:29;99969.22;;;-2.47;100.00
45253;BME280;63171;50.520;30.486;2024-01-11T02:30:19;99957.22;;;-2.45;100.00
45253;BME280;63171;50.520;30.486;2024-01-11T02:31:08;99951.28;;;-2.48;100.00
45253;BME280;63171;50.520;30.486;2024-01-11T02:32:01;99964.06;;;-2.44;100.00
45253;BME280;63171;50.520;30.486;2024-01-11T02:32:52;99958.91;;;-2.42;100.00
45253;BME280;63171;50.520;30.486;2024-01-11T02:33:43;99952.09;;;-2.45;100.00
45253;BME280;63171;50.520;30.486;2024-01-11T02:34:33;99957.25;;;-2.48;100.00
45253;BME280;63171;50.520;30.486;2024-01-11T02:35:23;99962.44;;;-2.52;100.00
45253;BME280;63171;50.520;30.486;2024-01-11T02:36:14;99960.75;;;-2.56;100.00
45253;BME280;63171;50.520;30.486;2024-01-11T02:37:05;99958.19;;;-2.56;100.00
45253;BME280;63171;50.520;30.486;2024-01-11T02:37:55;99951.34;;;-2.53;100.00
45253;BME280;63171;50.520;30.486;2024-01-11T02:38:46;99948.78;;;-2.53;100.00
45253;BME280;63171;50.520;30.486;2024-01-11T02:39:38;99947.06;;;-2.52;100.00
45253;BME280;63171;50.520;30.486;2024-01-11T02:40:29;99941.91;;;-2.54;100.00
45253;BME280;63171;50.520;30.486;2024-01-11T02:41:21;99936.78;;;-2.54;100.00
45253;BME280;63171;50.520;30.486;2024-01-11T02:42:12;99935.94;;;-2.51;100.00
45253;BME280;63171;50.520;30.486;2024-01-11T02:43:07;99936.81;;;-2.52;100.00
45253;BME280;63171;50.520;30.486;2024-01-11T02:43:58;99926.56;;;-2.57;100.00
45253;BME280;63171;50.520;30.486;2024-01-11T02:44:49;99933.38;;;-2.56;100.00
45253;BME280;63171;50.520;30.486;2024-01-11T02:45:39;99925.78;;;-2.63;100.00
45253;BME280;63171;50.520;30.486;2024-01-11T02:46:31;99925.75;;;-2.60;100.00
45253;BME280;63171;50.520;30.486;2024-01-11T02:47:21;99924.84;;;-2.55;100.00
45253;BME280;63171;50.520;30.486;2024-01-11T02:48:11;99927.34;;;-2.47;100.00
45253;BME280;63171;50.520;30.486;2024-01-11T02:49:02;99916.25;;;-2.48;100.00
45253;BME280;63171;50.520;30.486;2024-01-11T02:49:51;99924.72;;;-2.43;100.00
45253;BME280;63171;50.520;30.486;2024-01-11T02:50:41;99929.03;;;-2.46;100.00
45253;BME280;63171;50.520;30.486;2024-01-11T02:51:32;99923.09;;;-2.48;100.00
45253;BME280;63171;50.520;30.486;2024-01-11T02:52:22;99928.25;;;-2.51;100.00
45253;BME280;63171;50.520;30.486;2024-01-11T02:53:11;99925.66;;;-2.48;100.00
45253;BME280;63171;50.520;30.486;2024-01-11T02:54:02;99928.22;;;-2.48;100.00
45253;BME280;63171;50.520;30.486;2024-01-11T02:54:53;99919.66;;;-2.49;100.00
45253;BME280;63171;50.520;30.486;2024-01-11T02:55:44;99912.75;;;-2.39;100.00
45253;BME280;63171;50.520;30.486;2024-01-11T02:56:34;99916.19;;;-2.40;100.00
45253;BME280;63171;50.520;30.486;2024-01-11T02:57:23;99918.75;;;-2.43;100.00
45253;BME280;63171;50.520;30.486;2024-01-11T02:58:14;99916.19;;;-2.45;100.00
45253;BME280;63171;50.520;30.486;2024-01-11T02:59:04;99897.41;;;-2.45;100.00
45253;BME280;63171;50.520;30.486;2024-01-11T02:59:54;99903.38;;;-2.40;100.00
45253;BME280;63171;50.520;30.486;2024-01-11T03:00:44;99897.28;;;-2.33;100.00
45253;BME280;63171;50.520;30.486;2024-01-11T03:01:35;99892.97;;;-2.29;100.00
45253;BME280;63171;50.520;30.486;2024-01-11T03:02:25;99892.13;;;-2.27;100.00
45253;BME280;63171;50.520;30.486;2024-01-11T03:03:16;99885.25;;;-2.28;100.00
45253;BME280;63171;50.520;30.486;2024-01-11T03:04:06;99885.31;;;-2.32;100.00
45253;BME280;63171;50.520;30.486;2024-01-11T03:04:55;99886.25;;;-2.40;100.00
45253;BME280;63171;50.520;30.486;2024-01-11T03:05:46;99887.06;;;-2.34;100.00
45253;BME280;63171;50.520;30.486;2024-01-11T03:06:36;99880.25;;;-2.39;100.00
45253;BME280;63171;50.520;30.486;2024-01-11T03:07:26;99891.25;;;-2.29;100.00
45253;BME280;63171;50.520;30.486;2024-01-11T03:08:18;99883.63;;;-2.33;100.00
45253;BME280;63171;50.520;30.486;2024-01-11T03:09:07;99882.81;;;-2.37;100.00
45253;BME280;63171;50.520;30.486;2024-01-11T03:09:59;99886.25;;;-2.40;100.00
45253;BME280;63171;50.520;30.486;2024-01-11T03:10:49;99881.94;;;-2.34;100.00
45253;BME280;63171;50.520;30.486;2024-01-11T03:11:39;99875.84;;;-2.27;100.00
45253;BME280;63171;50.520;30.486;2024-01-11T03:12:29;99880.09;;;-2.23;100.00
45253;BME280;63171;50.520;30.486;2024-01-11T03:13:19;99871.50;;;-2.19;100.00
45253;BME280;63171;50.520;30.486;2024-01-11T03:14:09;99874.19;;;-2.30;100.00
45253;BME280;63171;50.520;30.486;2024-01-11T03:15:00;99866.50;;;-2.31;100.00
45253;BME280;63171;50.520;30.486;2024-01-11T03:15:49;99869.03;;;-2.30;100.00
45253;BME280;63171;50.520;30.486;2024-01-11T03:16:39;99846.84;;;-2.32;100.00
45253;BME280;63171;50.520;30.486;2024-01-11T03:17:31;99857.25;;;-2.46;100.00
45253;BME280;63171;50.520;30.486;2024-01-11T03:18:21;99846.13;;;-2.45;100.00
45253;BME280;63171;50.520;30.486;2024-01-11T03:19:11;99852.03;;;-2.37;100.00
45253;BME280;63171;50.520;30.486;2024-01-11T03:20:02;99842.66;;;-2.40;100.00
45253;BME280;63171;50.520;30.486;2024-01-11T03:20:53;99846.94;;;-2.40;100.00
45253;BME280;63171;50.520;30.486;2024-01-11T03:21:43;99846.94;;;-2.39;100.00
45253;BME280;63171;50.520;30.486;2024-01-11T03:22:35;99840.03;;;-2.33;100.00
45253;BME280;63171;50.520;30.486;2024-01-11T03:23:25;99840.81;;;-2.25;100.00
45253;BME280;63171;50.520;30.486;2024-01-11T03:24:14;99844.25;;;-2.29;100.00
45253;BME280;63171;50.520;30.486;2024-01-11T03:25:07;99839.97;;;-2.29;100.00
45253;BME280;63171;50.520;30.486;2024-01-11T03:25:56;99839.09;;;-2.26;100.00
45253;BME280;63171;50.520;30.486;2024-01-11T03:26:49;99836.59;;;-2.32;100.00
45253;BME280;63171;50.520;30.486;2024-01-11T03:27:40;99840.84;;;-2.30;100.00
45253;BME280;63171;50.520;30.486;2024-01-11T03:28:30;99826.38;;;-2.35;100.00
45253;BME280;63171;50.520;30.486;2024-01-11T03:29:20;99827.25;;;-2.36;100.00
45253;BME280;63171;50.520;30.486;2024-01-11T03:30:12;99831.56;;;-2.43;100.00
45253;BME280;63171;50.520;30.486;2024-01-11T03:31:02;99814.47;;;-2.44;100.00
45253;BME280;63171;50.520;30.486;2024-01-11T03:31:52;99816.16;;;-2.39;100.00
45253;BME280;63171;50.520;30.486;2024-01-11T03:32:42;99808.53;;;-2.48;100.00
45253;BME280;63171;50.520;30.486;2024-01-11T03:33:33;99804.22;;;-2.44;100.00
45253;BME280;63171;50.520;30.486;2024-01-11T03:34:22;99795.75;;;-2.49;100.00
45253;BME280;63171;50.520;30.486;2024-01-11T03:35:12;99799.94;;;-2.42;100.00
45253;BME280;63171;50.520;30.486;2024-01-11T03:36:07;99791.38;;;-2.40;100.00
45253;BME280;63171;50.520;30.486;2024-01-11T03:36:57;99792.19;;;-2.38;100.00
45253;BME280;63171;50.520;30.486;2024-01-11T03:37:48;99787.00;;;-2.31;100.00
45253;BME280;63171;50.520;30.486;2024-01-11T03:38:41;99780.16;;;-2.31;100.00
45253;BME280;63171;50.520;30.486;2024-01-11T03:39:31;99782.72;;;-2.32;100.00
45253;BME280;63171;50.520;30.486;2024-01-11T03:40:23;99786.22;;;-2.36;100.00
45253;BME280;63171;50.520;30.486;2024-01-11T03:41:12;99776.78;;;-2.34;100.00
45253;BME280;63171;50.520;30.486;2024-01-11T03:42:03;99774.28;;;-2.39;100.00
45253;BME280;63171;50.520;30.486;2024-01-11T03:42:53;99767.41;;;-2.37;100.00
45253;BME280;63171;50.520;30.486;2024-01-11T03:43:43;99763.13;;;-2.36;100.00
45253;BME280;63171;50.520;30.486;2024-01-11T03:44:33;99766.47;;;-2.31;100.00
45253;BME280;63171;50.520;30.486;2024-01-11T03:45:24;99763.00;;;-2.26;100.00
45253;BME280;63171;50.520;30.486;2024-01-11T03:46:14;99773.25;;;-2.26;100.00
45253;BME280;63171;50.520;30.486;2024-01-11T03:47:04;99760.44;;;-2.27;100.00
45253;BME280;63171;50.520;30.486;2024-01-11T03:47:54;99760.41;;;-2.23;100.00
45253;BME280;63171;50.520;30.486;2024-01-11T03:48:44;99766.31;;;-2.18;100.00
45253;BME280;63171;50.520;30.486;2024-01-11T03:49:34;99761.22;;;-2.21;100.00
45253;BME280;63171;50.520;30.486;2024-01-11T03:50:24;99751.84;;;-2.23;100.00
45253;BME280;63171;50.520;30.486;2024-01-11T03:51:14;99773.25;;;-2.26;100.00
45253;BME280;63171;50.520;30.486;2024-01-11T03:52:05;99769.75;;;-2.19;100.00
45253;BME280;63171;50.520;30.486;2024-01-11T03:52:56;99764.88;;;-2.40;100.00
45253;BME280;63171;50.520;30.486;2024-01-11T03:53:46;99755.44;;;-2.38;100.00
45253;BME280;63171;50.520;30.486;2024-01-11T03:54:36;99748.56;;;-2.34;100.00
45253;BME280;63171;50.520;30.486;2024-01-11T03:55:28;99766.50;;;-2.34;100.00
45253;BME280;63171;50.520;30.486;2024-01-11T03:56:18;99764.00;;;-2.38;100.00
45253;BME280;63171;50.520;30.486;2024-01-11T03:57:09;99772.56;;;-2.39;100.00
45253;BME280;63171;50.520;30.486;2024-01-11T03:57:59;99764.00;;;-2.38;100.00
45253;BME280;63171;50.520;30.486;2024-01-11T03:58:49;99754.75;;;-2.51;100.00
45253;BME280;63171;50.520;30.486;2024-01-11T03:59:40;99747.06;;;-2.52;100.00
45253;BME280;63171;50.520;30.486;2024-01-11T04:00:30;99750.34;;;-2.43;100.00
45253;BME280;63171;50.520;30.486;2024-01-11T04:01:19;99752.03;;;-2.39;100.00
45253;BME280;63171;50.520;30.486;2024-01-11T04:02:10;99746.81;;;-2.32;100.00
45253;BME280;63171;50.520;30.486;2024-01-11T04:03:00;99750.19;;;-2.26;100.00
45253;BME280;63171;50.520;30.486;2024-01-11T04:03:51;99743.41;;;-2.33;100.00
45253;BME280;63171;50.520;30.486;2024-01-11T04:04:42;99740.00;;;-2.33;100.00
45253;BME280;63171;50.520;30.486;2024-01-11T04:05:32;99741.66;;;-2.31;100.00
45253;BME280;63171;50.520;30.486;2024-01-11T04:06:22;99745.06;;;-2.29;100.00
45253;BME280;63171;50.520;30.486;2024-01-11T04:07:13;99737.47;;;-2.35;100.00
45253;BME280;63171;50.520;30.486;2024-01-11T04:08:04;99739.13;;;-2.32;100.00
45253;BME280;63171;50.520;30.486;2024-01-11T04:08:54;99729.75;;;-2.33;100.00
45253;BME280;63171;50.520;30.486;2024-01-11T04:09:46;99733.19;;;-2.36;100.00
45253;BME280;63171;50.520;30.486;2024-01-11T04:10:37;99715.31;;;-2.42;100.00
45253;BME280;63171;50.520;30.486;2024-01-11T04:11:28;99728.13;;;-2.42;100.00
45253;BME280;63171;50.520;30.486;2024-01-11T04:12:18;99737.56;;;-2.46;100.00
45253;BME280;63171;50.520;30.486;2024-01-11T04:13:08;99735.81;;;-2.42;100.00
45253;BME280;63171;50.520;30.486;2024-01-11T04:13:58;99734.91;;;-2.36;100.00
45253;BME280;63171;50.520;30.486;2024-01-11T04:14:48;99737.53;;;-2.40;100.00
45253;BME280;63171;50.520;30.486;2024-01-11T04:15:38;99747.78;;;-2.43;100.00
45253;BME280;63171;50.520;30.486;2024-01-11T04:16:28;99758.97;;;-2.47;100.00
45253;BME280;63171;50.520;30.486;2024-01-11T04:17:18;99763.16;;;-2.41;100.00
45253;BME280;63171;50.520;30.486;2024-01-11T04:18:09;99752.06;;;-2.43;100.00
45253;BME280;63171;50.520;30.486;2024-01-11T04:18:59;99752.97;;;-2.47;100.00
45253;BME280;63171;50.520;30.486;2024-01-11T04:19:48;99752.97;;;-2.46;100.00
45253;BME280;63171;50.520;30.486;2024-01-11T04:20:39;99742.69;;;-2.44;100.00
45253;BME280;63171;50.520;30.486;2024-01-11T04:21:29;99741.06;;;-2.50;100.00